sensor_id;sensor_type;location;lat;lon;timestamp;pressure;altitude;pressure_sealevel;temperature;humidity
23261;BME280;11799;47.740;-3.390;2022-07-22T00:02:15;101865.63;;;15.33;100.00
23261;BME280;11799;47.740;-3.390;2022-07-22T00:04:40;101866.59;;;15.27;100.00
23261;BME280;11799;47.740;-3.390;2022-07-22T00:07:06;101867.22;;;15.17;100.00
23261;BME280;11799;47.740;-3.390;2022-07-22T00:09:31;101870.19;;;15.16;100.00
23261;BME280;11799;47.740;-3.390;2022-07-22T00:11:57;101860.16;;;15.21;100.00
23261;BME280;11799;47.740;-3.390;2022-07-22T00:14:23;101863.41;;;15.18;100.00
23261;BME280;11799;47.740;-3.390;2022-07-22T00:16:49;101858.75;;;15.19;100.00
23261;BME280;11799;47.740;-3.390;2022-07-22T00:19:14;101853.13;;;15.25;100.00
23261;BME280;11799;47.740;-3.390;2022-07-22T00:21:40;101847.31;;;15.22;100.00
23261;BME280;11799;47.740;-3.390;2022-07-22T00:24:05;101855.91;;;15.14;100.00
23261;BME280;11799;47.740;-3.390;2022-07-22T00:26:31;101843.88;;;15.15;100.00
23261;BME280;11799;47.740;-3.390;2022-07-22T00:28:57;101854.97;;;15.08;100.00
23261;BME280;11799;47.740;-3.390;2022-07-22T00:31:22;101848.63;;;15.19;100.00
23261;BME280;11799;47.740;-3.390;2022-07-22T00:33:48;101838.81;;;15.07;100.00
23261;BME280;11799;47.740;-3.390;2022-07-22T00:36:14;101844.84;;;15.09;100.00
23261;BME280;11799;47.740;-3.390;2022-07-22T00:38:39;101838.06;;;15.11;100.00
23261;BME280;11799;47.740;-3.390;2022-07-22T00:41:05;101834.75;;;15.09;100.00
23261;BME280;11799;47.740;-3.390;2022-07-22T00:43:55;101835.81;;;15.08;100.00
23261;BME280;11799;47.740;-3.390;2022-07-22T00:46:23;101826.53;;;15.09;100.00
23261;BME280;11799;47.740;-3.390;2022-07-22T00:48:50;101825.34;;;15.05;100.00
23261;BME280;11799;47.740;-3.390;2022-07-22T00:51:17;101828.94;;;15.06;100.00
23261;BME280;11799;47.740;-3.390;2022-07-22T00:53:44;101822.03;;;15.03;100.00
23261;BME280;11799;47.740;-3.390;2022-07-22T00:56:12;101827.84;;;15.07;100.00
23261;BME280;11799;47.740;-3.390;2022-07-22T00:58:38;101829.16;;;15.04;100.00
23261;BME280;11799;47.740;-3.390;2022-07-22T01:01:04;101831.91;;;15.04;100.00
23261;BME280;11799;47.740;-3.390;2022-07-22T01:03:30;101821.94;;;14.98;100.00
23261;BME280;11799;47.740;-3.390;2022-07-22T01:05:56;101831.22;;;14.97;100.00
23261;BME280;11799;47.740;-3.390;2022-07-22T01:08:22;101827.66;;;14.96;100.00
23261;BME280;11799;47.740;-3.390;2022-07-22T01:10:48;101830.25;;;14.91;100.00
23261;BME280;11799;47.740;-3.390;2022-07-22T01:13:14;101817.53;;;14.97;100.00
23261;BME280;11799;47.740;-3.390;2022-07-22T01:15:39;101819.44;;;14.96;100.00
23261;BME280;11799;47.740;-3.390;2022-07-22T01:18:05;101813.38;;;14.94;100.00
23261;BME280;11799;47.740;-3.390;2022-07-22T01:20:31;101801.00;;;14.92;100.00
23261;BME280;11799;47.740;-3.390;2022-07-22T01:22:57;101797.78;;;14.95;100.00
23261;BME280;11799;47.740;-3.390;2022-07-22T01:25:22;101801.22;;;14.90;100.00
23261;BME280;11799;47.740;-3.390;2022-07-22T01:27:48;101796.81;;;14.89;100.00
23261;BME280;11799;47.740;-3.390;2022-07-22T01:30:14;101789.44;;;14.90;100.00
23261;BME280;11799;47.740;-3.390;2022-07-22T01:32:40;101790.28;;;14.90;100.00
23261;BME280;11799;47.740;-3.390;2022-07-22T01:35:05;101785.78;;;14.84;100.00
23261;BME280;11799;47.740;-3.390;2022-07-22T01:37:33;101781.38;;;14.83;100.00
23261;BME280;11799;47.740;-3.390;2022-07-22T01:40:00;101784.59;;;14.92;100.00
23261;BME280;11799;47.740;-3.390;2022-07-22T01:42:26;101781.47;;;14.88;100.00
23261;BME280;11799;47.740;-3.390;2022-07-22T01:44:52;101778.41;;;14.85;100.00
23261;BME280;11799;47.740;-3.390;2022-07-22T01:47:18;101778.88;;;14.82;100.00
23261;BME280;11799;47.740;-3.390;2022-07-22T01:49:44;101778.28;;;14.80;100.00
23261;BME280;11799;47.740;-3.390;2022-07-22T01:52:09;101777.47;;;14.79;100.00
23261;BME280;11799;47.740;-3.390;2022-07-22T01:54:36;101774.16;;;14.77;100.00
23261;BME280;11799;47.740;-3.390;2022-07-22T01:57:02;101771.16;;;14.79;100.00
23261;BME280;11799;47.740;-3.390;2022-07-22T01:59:28;101771.75;;;14.81;100.00
23261;BME280;11799;47.740;-3.390;2022-07-22T02:01:54;101768.28;;;14.85;100.00
23261;BME280;11799;47.740;-3.390;2022-07-22T02:04:21;101774.97;;;14.78;100.00
23261;BME280;11799;47.740;-3.390;2022-07-22T02:06:46;101759.88;;;14.75;100.00
23261;BME280;11799;47.740;-3.390;2022-07-22T02:09:12;101749.75;;;14.76;100.00
23261;BME280;11799;47.740;-3.390;2022-07-22T02:11:44;101750.25;;;14.73;100.00
23261;BME280;11799;47.740;-3.390;2022-07-22T02:14:12;101749.41;;;14.72;100.00
23261;BME280;11799;47.740;-3.390;2022-07-22T02:16:38;101750.75;;;14.70;100.00
23261;BME280;11799;47.740;-3.390;2022-07-22T02:19:04;101750.63;;;14.64;100.00
23261;BME280;11799;47.740;-3.390;2022-07-22T02:21:30;101750.25;;;14.73;100.00
23261;BME280;11799;47.740;-3.390;2022-07-22T02:23:59;101744.44;;;14.69;100.00
23261;BME280;11799;47.740;-3.390;2022-07-22T02:26:25;101751.66;;;14.75;100.00
23261;BME280;11799;47.740;-3.390;2022-07-22T02:28:50;101748.44;;;14.78;100.00
23261;BME280;11799;47.740;-3.390;2022-07-22T02:31:16;101747.28;;;14.74;100.00
23261;BME280;11799;47.740;-3.390;2022-07-22T02:33:42;101740.72;;;14.75;100.00
23261;BME280;11799;47.740;-3.390;2022-07-22T02:36:08;101742.63;;;14.75;100.00
23261;BME280;11799;47.740;-3.390;2022-07-22T02:38:35;101746.19;;;14.75;100.00
23261;BME280;11799;47.740;-3.390;2022-07-22T02:41:01;101735.00;;;14.77;100.00
23261;BME280;11799;47.740;-3.390;2022-07-22T02:43:27;101734.19;;;14.76;100.00
23261;BME280;11799;47.740;-3.390;2022-07-22T02:45:53;101730.13;;;14.79;100.00
23261;BME280;11799;47.740;-3.390;2022-07-22T02:48:18;101729.66;;;14.82;100.00
23261;BME280;11799;47.740;-3.390;2022-07-22T02:50:48;101725.25;;;14.81;100.00
23261;BME280;11799;47.740;-3.390;2022-07-22T02:53:19;101724.28;;;14.87;100.00
23261;BME280;11799;47.740;-3.390;2022-07-22T02:55:44;101726.19;;;14.86;100.00
23261;BME280;11799;47.740;-3.390;2022-07-22T02:58:10;101721.03;;;14.90;100.00
23261;BME280;11799;47.740;-3.390;2022-07-22T03:00:38;101713.31;;;14.87;100.00
23261;BME280;11799;47.740;-3.390;2022-07-22T03:03:04;101715.81;;;14.88;100.00
23261;BME280;11799;47.740;-3.390;2022-07-22T03:05:31;101707.03;;;14.86;100.00
23261;BME280;11799;47.740;-3.390;2022-07-22T03:08:13;101710.72;;;14.92;100.00
23261;BME280;11799;47.740;-3.390;2022-07-22T03:10:39;101711.75;;;14.91;100.00
23261;BME280;11799;47.740;-3.390;2022-07-22T03:13:05;101708.81;;;14.92;100.00
23261;BME280;11799;47.740;-3.390;2022-07-22T03:15:30;101708.31;;;14.95;100.00
23261;BME280;11799;47.740;-3.390;2022-07-22T03:17:56;101704.03;;;15.00;100.00
23261;BME280;11799;47.740;-3.390;2022-07-22T03:20:23;101714.03;;;14.94;100.00
23261;BME280;11799;47.740;-3.390;2022-07-22T03:22:49;101704.50;;;14.96;100.00
23261;BME280;11799;47.740;-3.390;2022-07-22T03:25:15;101699.88;;;14.97;100.00
23261;BME280;11799;47.740;-3.390;2022-07-22T03:27:40;101701.53;;;14.98;100.00
23261;BME280;11799;47.740;-3.390;2022-07-22T03:30:06;101697.97;;;14.97;100.00
23261;BME280;11799;47.740;-3.390;2022-07-22T03:32:37;101700.34;;;14.94;100.00
23261;BME280;11799;47.740;-3.390;2022-07-22T03:35:03;101692.16;;;14.94;100.00
23261;BME280;11799;47.740;-3.390;2022-07-22T03:37:31;101696.19;;;14.91;100.00
23261;BME280;11799;47.740;-3.390;2022-07-22T03:39:56;101694.31;;;14.92;100.00
23261;BME280;11799;47.740;-3.390;2022-07-22T03:42:23;101697.25;;;14.90;100.00
23261;BME280;11799;47.740;-3.390;2022-07-22T03:44:50;101688.94;;;14.85;100.00
23261;BME280;11799;47.740;-3.390;2022-07-22T03:47:20;101687.03;;;14.86;100.00
23261;BME280;11799;47.740;-3.390;2022-07-22T03:49:46;101687.53;;;14.83;100.00
23261;BME280;11799;47.740;-3.390;2022-07-22T03:52:13;101684.78;;;14.83;100.00
23261;BME280;11799;47.740;-3.390;2022-07-22T03:54:39;101685.88;;;14.82;100.00
23261;BME280;11799;47.740;-3.390;2022-07-22T03:57:05;101681.13;;;14.77;100.00
23261;BME280;11799;47.740;-3.390;2022-07-22T03:59:31;101684.22;;;14.81;100.00
23261;BME280;11799;47.740;-3.390;2022-07-22T04:01:57;101673.28;;;14.81;100.00
23261;BME280;11799;47.740;-3.390;2022-07-22T04:04:23;101675.09;;;14.75;100.00
23261;BME280;11799;47.740;-3.390;2022-07-22T04:06:48;101670.69;;;14.74;100.00
23261;BME280;11799;47.740;-3.390;2022-07-22T04:09:20;101664.88;;;14.71;100.00
23261;BME280;11799;47.740;-3.390;2022-07-22T04:11:45;101664.28;;;14.69;100.00
23261;BME280;11799;47.740;-3.390;2022-07-22T04:14:12;101678.22;;;14.67;100.00
23261;BME280;11799;47.740;-3.390;2022-07-22T04:16:38;101670.69;;;14.74;100.00
23261;BME280;11799;47.740;-3.390;2022-07-22T04:19:08;101668.94;;;14.68;100.00
23261;BME280;11799;47.740;-3.390;2022-07-22T04:21:53;101673.22;;;14.64;100.00
23261;BME280;11799;47.740;-3.390;2022-07-22T04:24:21;101676.78;;;14.64;100.00
23261;BME280;11799;47.740;-3.390;2022-07-22T04:26:47;101673.47;;;14.62;100.00
23261;BME280;11799;47.740;-3.390;2022-07-22T04:29:13;101677.28;;;14.61;100.00
23261;BME280;11799;47.740;-3.390;2022-07-22T04:31:40;101671.69;;;14.56;100.00
23261;BME280;11799;47.740;-3.390;2022-07-22T04:34:14;101668.72;;;14.58;100.00
23261;BME280;11799;47.740;-3.390;2022-07-22T04:36:40;101668.13;;;14.56;100.00
23261;BME280;11799;47.740;-3.390;2022-07-22T04:39:06;101671.69;;;14.56;100.00
23261;BME280;11799;47.740;-3.390;2022-07-22T04:41:32;101678.22;;;14.55;100.00
23261;BME280;11799;47.740;-3.390;2022-07-22T04:43:58;101673.59;;;14.56;100.00
23261;BME280;11799;47.740;-3.390;2022-07-22T04:46:26;101678.72;;;14.52;100.00
23261;BME280;11799;47.740;-3.390;2022-07-22T04:48:53;101676.56;;;14.54;100.00
23261;BME280;11799;47.740;-3.390;2022-07-22T04:51:19;101676.31;;;14.56;100.00
23261;BME280;11799;47.740;-3.390;2022-07-22T04:53:47;101686.19;;;14.57;100.00
23261;BME280;11799;47.740;-3.390;2022-07-22T04:56:14;101674.66;;;14.55;100.00
23261;BME280;11799;47.740;-3.390;2022-07-22T04:58:40;101685.00;;;14.53;100.00
23261;BME280;11799;47.740;-3.390;2022-07-22T05:01:06;101684.31;;;14.57;100.00
23261;BME280;11799;47.740;-3.390;2022-07-22T05:03:32;101680.59;;;14.63;100.00
23261;BME280;11799;47.740;-3.390;2022-07-22T05:05:58;101686.66;;;14.65;100.00
23261;BME280;11799;47.740;-3.390;2022-07-22T05:08:30;101690.56;;;14.70;100.00
23261;BME280;11799;47.740;-3.390;2022-07-22T05:10:56;101687.94;;;14.75;100.00
23261;BME280;11799;47.740;-3.390;2022-07-22T05:13:22;101683.88;;;14.77;100.00
23261;BME280;11799;47.740;-3.390;2022-07-22T05:15:48;101678.50;;;14.82;100.00
23261;BME280;11799;47.740;-3.390;2022-07-22T05:18:14;101678.84;;;14.86;100.00
23261;BME280;11799;47.740;-3.390;2022-07-22T05:20:40;101681.91;;;14.89;100.00
23261;BME280;11799;47.740;-3.390;2022-07-22T05:23:06;101687.03;;;14.97;100.00
23261;BME280;11799;47.740;-3.390;2022-07-22T05:25:34;101689.16;;;14.95;100.00
23261;BME280;11799;47.740;-3.390;2022-07-22T05:27:59;101683.22;;;14.98;100.00
23261;BME280;11799;47.740;-3.390;2022-07-22T05:30:31;101681.16;;;15.06;100.00
23261;BME280;11799;47.740;-3.390;2022-07-22T05:32:57;101684.47;;;15.08;100.00
23261;BME280;11799;47.740;-3.390;2022-07-22T05:35:49;101677.09;;;15.08;100.00
23261;BME280;11799;47.740;-3.390;2022-07-22T05:38:15;101689.69;;;15.09;100.00
23261;BME280;11799;47.740;-3.390;2022-07-22T05:40:40;101683.56;;;15.19;100.00
23261;BME280;11799;47.740;-3.390;2022-07-22T05:43:06;101684.88;;;15.16;100.00
23261;BME280;11799;47.740;-3.390;2022-07-22T05:45:32;101696.19;;;15.20;100.00
23261;BME280;11799;47.740;-3.390;2022-07-22T05:47:58;101684.88;;;15.16;100.00
23261;BME280;11799;47.740;-3.390;2022-07-22T05:50:24;101697.59;;;15.22;100.00
23261;BME280;11799;47.740;-3.390;2022-07-22T05:52:49;101700.81;;;15.19;100.00
23261;BME280;11799;47.740;-3.390;2022-07-22T05:55:15;101700.91;;;15.24;100.00
23261;BME280;11799;47.740;-3.390;2022-07-22T05:57:42;101695.56;;;15.29;100.00
23261;BME280;11799;47.740;-3.390;2022-07-22T06:00:09;101702.09;;;15.28;100.00
23261;BME280;11799;47.740;-3.390;2022-07-22T06:02:39;101713.63;;;15.31;100.00
23261;BME280;11799;47.740;-3.390;2022-07-22T06:05:06;101702.44;;;15.32;100.00
23261;BME280;11799;47.740;-3.390;2022-07-22T06:07:32;101698.97;;;15.37;100.00
23261;BME280;11799;47.740;-3.390;2022-07-22T06:10:00;101704.59;;;15.47;100.00
23261;BME280;11799;47.740;-3.390;2022-07-22T06:12:29;101701.28;;;15.45;100.00
23261;BME280;11799;47.740;-3.390;2022-07-22T06:14:55;101705.34;;;15.42;100.00
23261;BME280;11799;47.740;-3.390;2022-07-22T06:17:20;101709.84;;;15.48;100.00
23261;BME280;11799;47.740;-3.390;2022-07-22T06:19:46;101713.47;;;15.54;100.00
23261;BME280;11799;47.740;-3.390;2022-07-22T06:22:12;101700.72;;;15.59;100.00
23261;BME280;11799;47.740;-3.390;2022-07-22T06:24:37;101704.56;;;15.75;100.00
23261;BME280;11799;47.740;-3.390;2022-07-22T06:27:03;101706.97;;;15.88;100.00
23261;BME280;11799;47.740;-3.390;2022-07-22T06:29:29;101706.88;;;16.00;100.00
23261;BME280;11799;47.740;-3.390;2022-07-22T06:31:55;101706.47;;;16.30;100.00
23261;BME280;11799;47.740;-3.390;2022-07-22T06:34:21;101699.44;;;16.56;99.21
23261;BME280;11799;47.740;-3.390;2022-07-22T06:37:02;101708.28;;;16.80;97.67
23261;BME280;11799;47.740;-3.390;2022-07-22T06:39:28;101714.53;;;16.75;96.90
23261;BME280;11799;47.740;-3.390;2022-07-22T06:41:57;101707.44;;;16.79;96.44
23261;BME280;11799;47.740;-3.390;2022-07-22T06:44:41;101714.38;;;17.09;94.72
23261;BME280;11799;47.740;-3.390;2022-07-22T06:47:16;101707.31;;;17.18;93.58
23261;BME280;11799;47.740;-3.390;2022-07-22T06:49:42;101705.44;;;17.24;92.33
23261;BME280;11799;47.740;-3.390;2022-07-22T06:52:08;101697.91;;;17.36;92.20
23261;BME280;11799;47.740;-3.390;2022-07-22T06:54:33;101708.91;;;17.68;90.04
23261;BME280;11799;47.740;-3.390;2022-07-22T06:57:01;101708.72;;;18.17;87.14
23261;BME280;11799;47.740;-3.390;2022-07-22T06:59:31;101709.38;;;18.86;84.14
23261;BME280;11799;47.740;-3.390;2022-07-22T07:01:57;101703.38;;;19.10;80.89
23261;BME280;11799;47.740;-3.390;2022-07-22T07:04:24;101700.47;;;18.69;82.37
23261;BME280;11799;47.740;-3.390;2022-07-22T07:06:49;101689.00;;;18.30;83.62
23261;BME280;11799;47.740;-3.390;2022-07-22T07:09:35;101690.88;;;18.24;84.47
23261;BME280;11799;47.740;-3.390;2022-07-22T07:12:13;101688.41;;;18.75;81.95
23261;BME280;11799;47.740;-3.390;2022-07-22T07:14:57;101679.16;;;19.27;78.78
23261;BME280;11799;47.740;-3.390;2022-07-22T07:17:22;101687.34;;;20.44;74.48
23261;BME280;11799;47.740;-3.390;2022-07-22T07:19:49;101685.28;;;20.80;72.45
23261;BME280;11799;47.740;-3.390;2022-07-22T07:22:15;101679.66;;;21.00;69.72
23261;BME280;11799;47.740;-3.390;2022-07-22T07:24:41;101679.38;;;20.97;69.45
23261;BME280;11799;47.740;-3.390;2022-07-22T07:27:07;101670.31;;;21.35;68.87
23261;BME280;11799;47.740;-3.390;2022-07-22T07:29:33;101682.91;;;21.80;66.82
23261;BME280;11799;47.740;-3.390;2022-07-22T07:31:59;101681.84;;;22.10;65.59
23261;BME280;11799;47.740;-3.390;2022-07-22T07:34:24;101683.19;;;22.13;64.58
23261;BME280;11799;47.740;-3.390;2022-07-22T07:36:50;101691.41;;;22.23;64.65
23261;BME280;11799;47.740;-3.390;2022-07-22T07:39:16;101691.03;;;22.54;63.03
23261;BME280;11799;47.740;-3.390;2022-07-22T07:41:42;101701.03;;;22.73;61.69
23261;BME280;11799;47.740;-3.390;2022-07-22T07:44:10;101702.84;;;22.12;63.35
23261;BME280;11799;47.740;-3.390;2022-07-22T07:46:35;101694.91;;;22.53;61.42
23261;BME280;11799;47.740;-3.390;2022-07-22T07:49:01;101703.94;;;22.63;62.62
23261;BME280;11799;47.740;-3.390;2022-07-22T07:51:27;101696.91;;;22.95;61.36
23261;BME280;11799;47.740;-3.390;2022-07-22T07:53:52;101700.22;;;22.73;61.11
23261;BME280;11799;47.740;-3.390;2022-07-22T07:56:18;101704.50;;;22.13;62.97
23261;BME280;11799;47.740;-3.390;2022-07-22T07:58:44;101707.63;;;22.54;61.59
23261;BME280;11799;47.740;-3.390;2022-07-22T08:01:09;101696.84;;;23.00;60.95
23261;BME280;11799;47.740;-3.390;2022-07-22T08:03:35;101697.97;;;22.75;61.79
23261;BME280;11799;47.740;-3.390;2022-07-22T08:06:01;101696.91;;;23.14;60.28
23261;BME280;11799;47.740;-3.390;2022-07-22T08:08:28;101698.75;;;23.88;58.38
23261;BME280;11799;47.740;-3.390;2022-07-22T08:10:55;101690.53;;;23.83;58.64
23261;BME280;11799;47.740;-3.390;2022-07-22T08:13:39;101690.69;;;24.06;59.06
23261;BME280;11799;47.740;-3.390;2022-07-22T08:16:11;101689.84;;;23.21;59.55
23261;BME280;11799;47.740;-3.390;2022-07-22T08:18:37;101694.50;;;23.63;58.56
23261;BME280;11799;47.740;-3.390;2022-07-22T08:21:03;101689.91;;;23.86;57.66
23261;BME280;11799;47.740;-3.390;2022-07-22T08:23:37;101684.97;;;23.70;57.70
23261;BME280;11799;47.740;-3.390;2022-07-22T08:26:03;101688.84;;;23.50;57.87
23261;BME280;11799;47.740;-3.390;2022-07-22T08:28:29;101679.97;;;23.34;58.70
23261;BME280;11799;47.740;-3.390;2022-07-22T08:30:54;101672.63;;;22.87;60.19
23261;BME280;11799;47.740;-3.390;2022-07-22T08:33:20;101671.88;;;23.19;59.07
23261;BME280;11799;47.740;-3.390;2022-07-22T08:35:46;101676.28;;;23.39;59.86
23261;BME280;11799;47.740;-3.390;2022-07-22T08:38:12;101668.78;;;23.58;59.46
23261;BME280;11799;47.740;-3.390;2022-07-22T08:40:37;101673.03;;;23.69;59.32
23261;BME280;11799;47.740;-3.390;2022-07-22T08:43:04;101669.38;;;22.80;60.62
23261;BME280;11799;47.740;-3.390;2022-07-22T08:45:31;101675.16;;;22.83;60.50
23261;BME280;11799;47.740;-3.390;2022-07-22T08:47:57;101683.31;;;23.50;59.71
23261;BME280;11799;47.740;-3.390;2022-07-22T08:50:53;101686.25;;;23.40;58.34
23261;BME280;11799;47.740;-3.390;2022-07-22T08:53:23;101684.66;;;23.71;57.52
23261;BME280;11799;47.740;-3.390;2022-07-22T08:55:52;101691.44;;;23.27;58.69
23261;BME280;11799;47.740;-3.390;2022-07-22T08:58:18;101687.59;;;23.42;57.63
23261;BME280;11799;47.740;-3.390;2022-07-22T09:00:44;101688.50;;;22.81;58.49
23261;BME280;11799;47.740;-3.390;2022-07-22T09:03:49;101686.72;;;23.09;58.13
23261;BME280;11799;47.740;-3.390;2022-07-22T09:06:17;101695.31;;;22.89;58.80
23261;BME280;11799;47.740;-3.390;2022-07-22T09:08:58;101703.19;;;22.77;59.15
23261;BME280;11799;47.740;-3.390;2022-07-22T09:11:45;101689.72;;;22.94;58.63
23261;BME280;11799;47.740;-3.390;2022-07-22T09:14:47;101701.78;;;22.79;59.29
23261;BME280;11799;47.740;-3.390;2022-07-22T09:17:36;101711.38;;;23.29;59.08
23261;BME280;11799;47.740;-3.390;2022-07-22T09:20:40;101718.03;;;23.28;58.64
23261;BME280;11799;47.740;-3.390;2022-07-22T09:23:25;101713.63;;;23.27;59.05
23261;BME280;11799;47.740;-3.390;2022-07-22T09:25:53;101705.50;;;23.12;59.08
23261;BME280;11799;47.740;-3.390;2022-07-22T09:28:26;101717.56;;;23.78;58.11
23261;BME280;11799;47.740;-3.390;2022-07-22T09:31:24;101714.63;;;23.50;56.24
23261;BME280;11799;47.740;-3.390;2022-07-22T09:33:53;101719.47;;;23.63;58.18
23261;BME280;11799;47.740;-3.390;2022-07-22T09:36:25;101713.81;;;23.50;57.75
23261;BME280;11799;47.740;-3.390;2022-07-22T09:38:53;101714.38;;;23.84;56.64
23261;BME280;11799;47.740;-3.390;2022-07-22T09:41:19;101706.25;;;23.88;57.44
23261;BME280;11799;47.740;-3.390;2022-07-22T09:43:45;101702.47;;;24.44;53.42
23261;BME280;11799;47.740;-3.390;2022-07-22T09:46:11;101714.09;;;24.60;54.39
23261;BME280;11799;47.740;-3.390;2022-07-22T09:48:56;101704.47;;;24.11;55.07
23261;BME280;11799;47.740;-3.390;2022-07-22T09:51:41;101698.47;;;24.50;55.18
23261;BME280;11799;47.740;-3.390;2022-07-22T09:54:29;101701.13;;;24.41;53.57
23261;BME280;11799;47.740;-3.390;2022-07-22T09:56:56;101706.13;;;24.25;53.69
23261;BME280;11799;47.740;-3.390;2022-07-22T09:59:22;101702.97;;;24.60;53.46
23261;BME280;11799;47.740;-3.390;2022-07-22T10:02:20;101702.56;;;24.80;52.72
23261;BME280;11799;47.740;-3.390;2022-07-22T10:04:48;101690.06;;;24.91;52.91
23261;BME280;11799;47.740;-3.390;2022-07-22T10:07:15;101699.16;;;24.83;52.55
23261;BME280;11799;47.740;-3.390;2022-07-22T10:09:45;101699.28;;;24.37;52.46
23261;BME280;11799;47.740;-3.390;2022-07-22T10:12:12;101705.97;;;24.63;53.53
23261;BME280;11799;47.740;-3.390;2022-07-22T10:14:39;101702.47;;;24.57;52.83
23261;BME280;11799;47.740;-3.390;2022-07-22T10:17:05;101710.91;;;24.39;53.54
23261;BME280;11799;47.740;-3.390;2022-07-22T10:19:31;101711.47;;;24.22;53.87
23261;BME280;11799;47.740;-3.390;2022-07-22T10:21:57;101706.22;;;24.20;54.26
23261;BME280;11799;47.740;-3.390;2022-07-22T10:24:22;101698.28;;;24.96;53.34
23261;BME280;11799;47.740;-3.390;2022-07-22T10:26:57;101686.81;;;24.75;53.01
23261;BME280;11799;47.740;-3.390;2022-07-22T10:29:42;101696.59;;;25.00;52.92
23261;BME280;11799;47.740;-3.390;2022-07-22T10:34:41;101693.63;;;25.19;51.40
23261;BME280;11799;47.740;-3.390;2022-07-22T10:45:31;101688.81;;;25.11;52.74
23261;BME280;11799;47.740;-3.390;2022-07-22T10:48:00;101696.91;;;25.35;50.63
23261;BME280;11799;47.740;-3.390;2022-07-22T10:53:07;101682.53;;;25.41;50.26
23261;BME280;11799;47.740;-3.390;2022-07-22T10:55:34;101681.66;;;25.55;49.80
23261;BME280;11799;47.740;-3.390;2022-07-22T10:58:00;101683.88;;;25.89;49.26
23261;BME280;11799;47.740;-3.390;2022-07-22T11:00:26;101687.91;;;25.38;51.00
23261;BME280;11799;47.740;-3.390;2022-07-22T11:02:52;101681.28;;;25.47;50.09
23261;BME280;11799;47.740;-3.390;2022-07-22T11:05:38;101684.91;;;25.70;50.33
23261;BME280;11799;47.740;-3.390;2022-07-22T11:08:08;101691.06;;;25.45;50.24
23261;BME280;11799;47.740;-3.390;2022-07-22T11:10:34;101692.00;;;25.76;50.04
23261;BME280;11799;47.740;-3.390;2022-07-22T11:12:59;101689.53;;;25.75;48.86
23261;BME280;11799;47.740;-3.390;2022-07-22T11:15:25;101697.00;;;25.97;49.09
23261;BME280;11799;47.740;-3.390;2022-07-22T11:17:55;101684.53;;;26.25;48.32
23261;BME280;11799;47.740;-3.390;2022-07-22T11:20:21;101677.00;;;25.95;48.42
23261;BME280;11799;47.740;-3.390;2022-07-22T11:22:47;101681.03;;;26.11;48.60
23261;BME280;11799;47.740;-3.390;2022-07-22T11:25:14;101682.84;;;25.85;49.45
23261;BME280;11799;47.740;-3.390;2022-07-22T11:27:50;101679.03;;;25.72;49.86
23261;BME280;11799;47.740;-3.390;2022-07-22T11:30:16;101681.19;;;25.61;49.10
23261;BME280;11799;47.740;-3.390;2022-07-22T11:32:42;101688.63;;;25.07;50.45
23261;BME280;11799;47.740;-3.390;2022-07-22T11:35:12;101686.31;;;25.23;49.33
23261;BME280;11799;47.740;-3.390;2022-07-22T11:37:38;101688.97;;;25.28;51.20
23261;BME280;11799;47.740;-3.390;2022-07-22T11:40:06;101676.63;;;24.98;50.95
23261;BME280;11799;47.740;-3.390;2022-07-22T11:42:32;101686.03;;;24.97;52.12
23261;BME280;11799;47.740;-3.390;2022-07-22T11:44:58;101686.75;;;25.16;52.20
23261;BME280;11799;47.740;-3.390;2022-07-22T11:47:24;101686.78;;;25.39;51.71
23261;BME280;11799;47.740;-3.390;2022-07-22T11:49:50;101687.25;;;25.63;50.54
23261;BME280;11799;47.740;-3.390;2022-07-22T11:52:16;101685.81;;;25.66;50.00
23261;BME280;11799;47.740;-3.390;2022-07-22T11:54:42;101683.34;;;25.64;50.06
23261;BME280;11799;47.740;-3.390;2022-07-22T11:57:08;101682.50;;;25.19;50.27
23261;BME280;11799;47.740;-3.390;2022-07-22T11:59:34;101692.84;;;24.91;51.54
23261;BME280;11799;47.740;-3.390;2022-07-22T12:02:02;101691.09;;;24.95;51.76
23261;BME280;11799;47.740;-3.390;2022-07-22T12:04:29;101692.41;;;24.98;51.39
23261;BME280;11799;47.740;-3.390;2022-07-22T12:06:58;101689.66;;;25.11;50.77
23261;BME280;11799;47.740;-3.390;2022-07-22T12:09:26;101686.88;;;25.11;50.53
23261;BME280;11799;47.740;-3.390;2022-07-22T12:11:54;101691.13;;;25.31;50.44
23261;BME280;11799;47.740;-3.390;2022-07-22T12:14:23;101692.34;;;26.15;49.79
23261;BME280;11799;47.740;-3.390;2022-07-22T12:19:24;101695.34;;;25.96;48.29
23261;BME280;11799;47.740;-3.390;2022-07-22T12:22:01;101684.47;;;25.77;48.63
23261;BME280;11799;47.740;-3.390;2022-07-22T12:24:40;101690.25;;;25.89;47.86
23261;BME280;11799;47.740;-3.390;2022-07-22T12:27:15;101685.13;;;25.83;47.96
23261;BME280;11799;47.740;-3.390;2022-07-22T12:29:44;101688.78;;;26.23;47.24
23261;BME280;11799;47.740;-3.390;2022-07-22T12:32:18;101687.47;;;26.20;47.70
23261;BME280;11799;47.740;-3.390;2022-07-22T12:37:25;101687.78;;;26.50;46.94
23261;BME280;11799;47.740;-3.390;2022-07-22T12:40:03;101679.59;;;26.62;46.27
23261;BME280;11799;47.740;-3.390;2022-07-22T12:42:37;101685.28;;;27.05;46.39
23261;BME280;11799;47.740;-3.390;2022-07-22T12:45:05;101694.94;;;26.99;44.19
23261;BME280;11799;47.740;-3.390;2022-07-22T12:47:51;101696.31;;;26.62;44.93
23261;BME280;11799;47.740;-3.390;2022-07-22T12:51:10;101696.56;;;26.34;45.94
23261;BME280;11799;47.740;-3.390;2022-07-22T12:53:15;101695.09;;;25.75;46.71
23261;BME280;11799;47.740;-3.390;2022-07-22T12:55:43;101699.81;;;25.52;47.27
23261;BME280;11799;47.740;-3.390;2022-07-22T12:58:10;101693.47;;;25.60;46.55
23261;BME280;11799;47.740;-3.390;2022-07-22T13:00:41;101700.16;;;25.14;47.12
23261;BME280;11799;47.740;-3.390;2022-07-22T13:03:07;101703.97;;;24.91;47.88